createdAt,value
2018-09-17T00:01:01.028Z,1.40
2018-09-17T00:03:30.577Z,1.50
2018-09-17T00:05:59.833Z,1.10
2018-09-17T00:08:32.814Z,1.37
2018-09-17T00:11:02.338Z,1.20
2018-09-17T00:13:35.459Z,1.73
2018-09-17T00:16:04.673Z,1.27
2018-09-17T00:18:38.214Z,1.23
2018-09-17T00:21:07.618Z,1.03
2018-09-17T00:23:40.437Z,1.47
2018-09-17T00:26:10.075Z,1.20
2018-09-17T00:28:43.866Z,1.53
2018-09-17T00:31:13.078Z,1.60
2018-09-17T00:33:45.998Z,1.33
2018-09-17T00:36:15.513Z,1.30
2018-09-17T00:38:49.544Z,1.20
2018-09-17T00:41:20.243Z,1.30
2018-09-17T00:43:53.237Z,1.43
2018-09-17T00:46:22.435Z,1.50
2018-09-17T00:48:55.481Z,1.20
2018-09-17T00:51:24.772Z,1.17
2018-09-17T00:54:01.416Z,1.07
2018-09-17T00:56:30.591Z,1.07
2018-09-17T00:59:01.545Z,1.27
2018-09-17T01:01:31.404Z,1.10
2018-09-17T01:04:04.038Z,1.10
2018-09-17T01:06:34.044Z,1.17
2018-09-17T01:09:14.671Z,0.90
2018-09-17T01:11:44.070Z,1.00
2018-09-17T01:14:13.387Z,1.30
2018-09-17T01:16:43.007Z,1.00
2018-09-17T01:19:14.084Z,1.33
2018-09-17T01:21:43.395Z,1.50
2018-09-17T01:24:25.052Z,1.37
2018-09-17T01:26:54.461Z,1.50
2018-09-17T01:29:24.569Z,1.27
2018-09-17T01:31:53.777Z,1.30
2018-09-17T01:34:23.293Z,1.87
2018-09-17T01:36:52.682Z,1.43
2018-09-17T01:39:25.916Z,1.00
2018-09-17T01:41:55.361Z,1.13
2018-09-17T01:44:26.929Z,1.10
2018-09-17T01:46:56.516Z,1.37
2018-09-17T01:49:29.726Z,1.20
2018-09-17T01:51:58.908Z,1.23
2018-09-17T01:54:40.383Z,1.20
2018-09-17T01:57:09.546Z,1.10
2018-09-17T01:59:38.736Z,2.30
2018-09-17T02:02:08.881Z,1.00
2018-09-17T02:04:38.097Z,1.13
2018-09-17T02:07:07.855Z,1.00
2018-09-17T02:09:41.337Z,1.13
2018-09-17T02:12:12.690Z,1.30
2018-09-17T02:14:42.838Z,1.20
2018-09-17T02:17:12.006Z,1.20
2018-09-17T02:19:45.035Z,1.10
2018-09-17T02:22:14.547Z,1.00
2018-09-17T02:24:47.362Z,1.03
2018-09-17T02:27:17.511Z,0.87
2018-09-17T02:29:50.249Z,1.10
2018-09-17T02:32:19.940Z,1.17
2018-09-17T02:34:57.014Z,1.13
2018-09-17T02:37:26.211Z,1.13
2018-09-17T02:39:55.633Z,0.90
2018-09-17T02:42:25.293Z,1.13
2018-09-17T02:45:07.497Z,1.20
2018-09-17T02:47:37.640Z,1.40
2018-09-17T02:50:07.588Z,1.10
2018-09-17T02:52:37.029Z,1.23
2018-09-17T02:55:07.657Z,1.40
2018-09-17T02:57:37.513Z,0.90
2018-09-17T03:00:08.418Z,1.33
2018-09-17T03:02:39.532Z,1.20
2018-09-17T03:05:12.754Z,1.10
2018-09-17T03:07:42.141Z,0.97
2018-09-17T03:10:13.715Z,1.03
2018-09-17T03:12:42.845Z,1.00
2018-09-17T03:15:26.802Z,0.80
2018-09-17T03:17:57.894Z,1.00
2018-09-17T03:20:27.074Z,1.40
2018-09-17T03:22:56.238Z,1.00
2018-09-17T03:25:25.827Z,1.67
2018-09-17T03:27:54.987Z,1.00
2018-09-17T03:30:24.330Z,1.03
2018-09-17T03:32:53.815Z,1.03
2018-09-17T03:35:27.248Z,1.20
2018-09-17T03:37:57.168Z,1.27
2018-09-17T03:40:28.029Z,1.27
2018-09-17T03:42:57.381Z,1.10
2018-09-17T03:45:30.477Z,1.27
2018-09-17T03:47:59.777Z,1.33
2018-09-17T03:50:32.339Z,1.20
2018-09-17T03:53:01.879Z,1.37
2018-09-17T03:55:34.946Z,1.00
2018-09-17T03:58:04.176Z,1.00
2018-09-17T04:00:40.708Z,1.10
2018-09-17T04:03:10.195Z,1.33
2018-09-17T04:05:40.742Z,1.07
2018-09-17T04:08:10.249Z,1.17
2018-09-17T04:10:43.413Z,1.17
2018-09-17T04:13:12.641Z,1.07
2018-09-17T04:15:45.681Z,1.20
2018-09-17T04:18:15.038Z,1.30
2018-09-17T04:20:51.327Z,1.00
2018-09-17T04:23:24.950Z,1.50
2018-09-17T04:25:54.149Z,1.27
2018-09-17T04:28:23.368Z,0.93
2018-09-17T04:30:54.643Z,1.30
2018-09-17T04:33:24.026Z,1.30
2018-09-17T04:36:01.136Z,1.83
2018-09-17T04:38:30.520Z,1.20
2018-09-17T04:41:00.292Z,1.57
2018-09-17T04:43:29.998Z,1.80
2018-09-17T04:46:02.895Z,1.50
2018-09-17T04:48:32.134Z,1.50
2018-09-17T04:51:06.538Z,1.53
2018-09-17T04:53:35.754Z,2.13
2018-09-17T04:56:12.587Z,1.30
2018-09-17T04:58:41.762Z,1.60
2018-09-17T05:01:14.620Z,1.67
2018-09-17T05:03:44.106Z,1.63
2018-09-17T05:06:14.808Z,1.27
2018-09-17T05:08:43.967Z,1.53
2018-09-17T05:11:17.442Z,1.43
2018-09-17T05:13:46.663Z,1.77
2018-09-17T05:16:23.580Z,2.20
2018-09-17T05:18:52.839Z,1.40
2018-09-17T05:21:22.054Z,1.60
2018-09-17T05:23:51.538Z,1.97
2018-09-17T05:26:24.220Z,1.80
2018-09-17T05:28:53.655Z,2.87
2018-09-17T05:31:26.902Z,3.37
2018-09-17T05:33:56.161Z,2.63
2018-09-17T05:36:32.909Z,2.53
2018-09-17T05:39:02.486Z,2.30
2018-09-17T05:41:31.858Z,1.90
2018-09-17T05:44:01.122Z,2.50
2018-09-17T05:46:42.744Z,2.40
2018-09-17T05:49:11.945Z,2.67
2018-09-17T05:51:41.250Z,2.43
2018-09-17T05:54:10.809Z,1.70
2018-09-17T05:56:40.141Z,2.10
2018-09-17T05:59:09.368Z,2.10
2018-09-17T06:01:41.986Z,1.50
2018-09-17T06:04:11.185Z,1.70
2018-09-17T06:06:48.063Z,2.23
2018-09-17T06:09:17.916Z,2.10
2018-09-17T06:11:47.811Z,2.10
2018-09-17T06:14:16.965Z,1.80
2018-09-17T06:16:50.575Z,1.70
2018-09-17T06:19:19.843Z,1.70
2018-09-17T06:21:57.256Z,1.90
2018-09-17T06:24:26.877Z,1.80
2018-09-17T06:26:56.231Z,2.13
2018-09-17T06:29:25.512Z,2.17
2018-09-17T06:32:03.070Z,2.30
2018-09-17T06:34:32.311Z,2.50
2018-09-17T06:37:02.735Z,1.93
2018-09-17T06:39:32.261Z,3.10
2018-09-17T06:42:05.393Z,2.20
2018-09-17T06:44:34.700Z,2.67
2018-09-17T06:47:08.150Z,2.90
2018-09-17T06:49:37.429Z,2.73
2018-09-17T06:52:14.437Z,2.70
2018-09-17T06:54:43.662Z,2.93
2018-09-17T06:57:14.551Z,3.40
2018-09-17T06:59:44.062Z,3.20
2018-09-17T07:02:16.732Z,3.87
2018-09-17T07:04:46.173Z,2.90
2018-09-17T07:07:23.454Z,2.73
2018-09-17T07:09:52.791Z,3.40
2018-09-17T07:12:22.675Z,2.80
2018-09-17T07:14:52.246Z,2.93
2018-09-17T07:17:25.218Z,3.20
2018-09-17T07:19:54.448Z,3.70
2018-09-17T07:22:31.056Z,3.20
2018-09-17T07:25:00.413Z,3.03
2018-09-17T07:27:29.641Z,3.13
2018-09-17T07:29:59.610Z,2.60
2018-09-17T07:32:32.446Z,2.53
2018-09-17T07:35:01.878Z,2.57
2018-09-17T07:37:34.313Z,2.63
2018-09-17T07:40:03.600Z,3.23
2018-09-17T07:42:40.271Z,2.63
2018-09-17T07:45:09.840Z,2.57
2018-09-17T07:51:13.182Z,2.70
2018-09-17T07:53:43.453Z,2.27
2018-09-17T07:56:12.726Z,1.50
2018-09-17T07:58:46.221Z,1.77
2018-09-17T08:01:15.528Z,1.90
2018-09-17T08:03:48.418Z,2.03
2018-09-17T08:06:18.172Z,1.93
2018-09-17T08:08:51.656Z,1.20
2018-09-17T08:11:21.042Z,1.30
2018-09-17T08:13:53.756Z,1.30
2018-09-17T08:16:23.021Z,1.30
2018-09-17T08:18:59.443Z,1.00
2018-09-17T08:21:29.231Z,0.80
2018-09-17T08:24:00.105Z,0.80
2018-09-17T08:26:29.668Z,0.90
2018-09-17T08:29:03.411Z,1.10
2018-09-17T08:31:32.657Z,0.90
2018-09-17T08:34:08.986Z,1.10
2018-09-17T08:36:38.485Z,1.03
2018-09-17T08:39:11.809Z,0.80
2018-09-17T08:41:41.488Z,0.80
2018-09-17T08:44:14.430Z,0.80
2018-09-17T08:46:43.781Z,0.80
2018-09-17T08:49:17.429Z,0.90
2018-09-17T08:51:46.742Z,0.93
2018-09-17T08:54:19.605Z,0.90
2018-09-17T08:56:59.695Z,0.90
2018-09-17T08:59:34.343Z,0.90
2018-09-17T09:02:09.027Z,0.80
2018-09-17T09:04:43.865Z,0.97
2018-09-17T09:07:28.996Z,0.80
2018-09-17T09:12:05.622Z,0.80
2018-09-17T09:14:39.405Z,0.90
2018-09-17T09:17:10.308Z,0.90
2018-09-17T09:19:39.978Z,1.20
2018-09-17T09:22:09.373Z,1.00
2018-09-17T09:24:38.929Z,1.00
2018-09-17T09:27:08.263Z,0.83
2018-09-17T09:29:37.618Z,0.90
2018-09-17T09:32:07.335Z,0.93
2018-09-17T09:34:40.112Z,0.80
2018-09-17T09:37:09.444Z,0.80
2018-09-17T09:39:42.578Z,0.83
2018-09-17T09:42:11.920Z,0.80
2018-09-17T09:47:13.345Z,0.90
2018-09-17T09:49:49.933Z,1.00
2018-09-17T09:52:19.498Z,1.10
2018-09-17T09:54:50.393Z,0.90
2018-09-17T09:57:19.640Z,0.90
2018-09-17T09:59:56.676Z,0.90
2018-09-17T10:02:31.637Z,1.00
2018-09-17T10:05:01.413Z,1.30
2018-09-17T10:07:30.698Z,1.00
2018-09-17T10:10:05.059Z,0.90
2018-09-17T10:12:39.579Z,1.00
2018-09-17T10:15:13.982Z,1.30
2018-09-17T10:17:48.992Z,1.33
2018-09-17T10:20:18.359Z,1.60
2018-09-17T10:22:47.624Z,1.37
2018-09-17T10:25:17.201Z,1.60
2018-09-17T10:27:46.463Z,1.50
2018-09-17T10:30:15.690Z,1.07
2018-09-17T10:32:45.293Z,1.10
2018-09-17T10:35:14.579Z,1.00
2018-09-17T10:37:43.870Z,1.10
2018-09-17T10:40:17.275Z,1.30
2018-09-17T10:42:46.535Z,1.20
2018-09-17T10:45:19.644Z,1.07
2018-09-17T10:47:49.291Z,1.00
2018-09-17T10:50:22.109Z,0.90
2018-09-17T10:52:51.418Z,0.90
2018-09-17T10:55:24.625Z,1.10
2018-09-17T10:57:54.528Z,1.00
2018-09-17T11:00:27.367Z,1.00
2018-09-17T11:02:56.734Z,1.77
2018-09-17T11:05:29.795Z,1.10
2018-09-17T11:07:59.512Z,1.10
2018-09-17T11:10:32.243Z,1.20
2018-09-17T11:13:01.775Z,1.10
2018-09-17T11:15:38.897Z,0.80
2018-09-17T11:18:08.198Z,1.10
2018-09-17T11:20:37.435Z,0.90
2018-09-17T11:23:06.857Z,1.30
2018-09-17T11:25:38.336Z,0.90
2018-09-17T11:28:07.650Z,0.70
2018-09-17T11:30:40.919Z,0.90
2018-09-17T11:33:11.829Z,0.97
2018-09-17T11:35:44.743Z,0.80
2018-09-17T11:38:13.980Z,0.90
2018-09-17T11:40:55.794Z,0.93
2018-09-17T11:43:26.570Z,1.00
2018-09-17T11:45:58.114Z,1.10
2018-09-17T11:48:31.320Z,1.30
2018-09-17T11:51:03.820Z,1.17
2018-09-17T11:53:34.115Z,0.90
2018-09-17T11:56:03.723Z,0.93
2018-09-17T11:58:33.084Z,0.90
2018-09-17T12:01:07.472Z,1.10
2018-09-17T12:03:42.071Z,0.80
2018-09-17T12:06:11.427Z,1.40
2018-09-17T12:08:40.748Z,0.90
2018-09-17T12:11:10.027Z,1.50
2018-09-17T12:13:39.470Z,1.10
2018-09-17T12:16:08.738Z,1.10
2018-09-17T12:18:38.124Z,1.10
2018-09-17T12:21:12.606Z,1.07
2018-09-17T12:23:42.298Z,1.10
2018-09-17T12:26:15.618Z,0.90
2018-09-17T12:28:46.243Z,1.00
2018-09-17T12:31:26.661Z,1.27
2018-09-17T12:33:56.620Z,1.00
2018-09-17T12:36:26.202Z,1.60
2018-09-17T12:38:55.490Z,0.90
2018-09-17T12:41:36.440Z,0.90
2018-09-17T12:44:05.826Z,1.00
2018-09-17T12:46:35.347Z,1.20
2018-09-17T12:50:33.963Z,1.37
2018-09-17T12:53:03.631Z,0.90
2018-09-17T12:55:32.886Z,1.20
2018-09-17T12:58:02.185Z,1.10
2018-09-17T13:00:31.794Z,1.10
2018-09-17T13:03:01.102Z,1.00
2018-09-17T13:05:33.658Z,1.00
2018-09-17T13:08:03.254Z,1.10
2018-09-17T13:10:36.420Z,1.17
2018-09-17T13:13:05.812Z,0.97
2018-09-17T13:15:43.763Z,1.00
2018-09-17T13:18:13.138Z,1.00
2018-09-17T13:20:42.897Z,1.33
2018-09-17T13:23:12.371Z,0.90
2018-09-17T13:25:45.151Z,1.03
2018-09-17T13:28:14.948Z,1.10
2018-09-17T13:30:47.793Z,1.00
2018-09-17T13:33:17.164Z,0.90
2018-09-17T13:35:49.961Z,0.80
2018-09-17T13:38:19.615Z,1.00
2018-09-17T13:40:52.825Z,1.60
2018-09-17T13:43:22.156Z,0.90
2018-09-17T13:46:00.147Z,0.80
2018-09-17T13:50:58.875Z,1.00
2018-09-17T13:53:28.370Z,1.00
2018-09-17T13:56:01.593Z,1.10
2018-09-17T13:58:31.382Z,1.00
2018-09-17T14:01:04.712Z,1.40
2018-09-17T14:03:34.352Z,0.90
2018-09-17T14:06:07.663Z,1.67
2018-09-17T14:08:37.145Z,2.10
2018-09-17T14:11:14.024Z,1.43
2018-09-17T14:13:43.705Z,0.90
2018-09-17T14:16:14.974Z,1.10
2018-09-17T14:18:44.385Z,1.10
2018-09-17T14:21:21.198Z,1.03
2018-09-17T14:23:50.507Z,1.10
2018-09-17T14:26:19.967Z,1.00
2018-09-17T14:28:49.462Z,0.80
2018-09-17T14:31:26.562Z,1.03
2018-09-17T14:33:56.078Z,0.90
2018-09-17T14:36:25.634Z,0.90
2018-09-17T14:38:54.958Z,0.90
2018-09-17T14:41:27.437Z,0.90
2018-09-17T14:43:57.005Z,1.00
2018-09-17T14:46:30.191Z,0.90
2018-09-17T14:48:59.620Z,0.70
2018-09-17T14:51:30.784Z,1.10
2018-09-17T14:54:00.045Z,0.90
2018-09-17T14:56:36.775Z,1.17
2018-09-17T14:59:06.420Z,0.87
2018-09-17T15:01:36.304Z,0.90
2018-09-17T15:04:05.577Z,1.00
2018-09-17T15:06:39.299Z,1.20
2018-09-17T15:09:10.410Z,0.90
2018-09-17T15:11:41.057Z,1.00
2018-09-17T15:14:11.433Z,1.20
2018-09-17T15:16:44.672Z,1.00
2018-09-17T15:19:14.234Z,1.00
2018-09-17T15:21:46.718Z,1.10
2018-09-17T15:24:16.023Z,1.10
2018-09-17T15:26:52.317Z,1.03
2018-09-17T15:29:21.964Z,1.30
2018-09-17T15:31:52.856Z,1.23
2018-09-17T15:34:22.180Z,1.20
2018-09-17T15:37:00.879Z,0.90
2018-09-17T15:39:30.304Z,1.10
2018-09-17T15:42:00.047Z,1.30
2018-09-17T15:44:29.441Z,1.10
2018-09-17T15:47:02.715Z,1.57
2018-09-17T15:49:32.019Z,1.03
2018-09-17T15:52:04.587Z,1.23
2018-09-17T15:54:34.205Z,1.27
2018-09-17T15:57:08.098Z,1.77
2018-09-17T15:59:37.383Z,1.47
2018-09-17T16:02:10.351Z,1.30
2018-09-17T16:04:39.597Z,1.13
2018-09-17T16:07:14.771Z,1.40
2018-09-17T16:09:44.328Z,1.20
2018-09-17T16:12:16.706Z,1.40
2018-09-17T16:14:46.153Z,1.40
2018-09-17T16:17:19.005Z,1.13
2018-09-17T16:19:48.555Z,1.47
2018-09-17T16:22:21.591Z,1.90
2018-09-17T16:24:51.346Z,1.70
2018-09-17T16:27:25.142Z,2.10
2018-09-17T16:29:54.875Z,1.80
2018-09-17T16:32:25.585Z,1.40
2018-09-17T16:34:54.895Z,1.70
2018-09-17T16:37:28.845Z,1.53
2018-09-17T16:39:58.512Z,2.20
2018-09-17T16:42:32.103Z,1.50
2018-09-17T16:45:02.577Z,1.60
2018-09-17T16:47:33.842Z,1.73
2018-09-17T16:50:03.130Z,1.90
2018-09-17T16:52:36.606Z,2.53
2018-09-17T16:55:06.047Z,1.80
2018-09-17T16:57:39.049Z,2.43
2018-09-17T17:00:08.733Z,1.90
2018-09-17T17:02:46.605Z,2.73
2018-09-17T17:05:15.979Z,3.07
2018-09-17T17:07:45.604Z,1.30
2018-09-17T17:10:15.227Z,1.60
2018-09-17T17:12:46.294Z,1.97
2018-09-17T17:15:16.710Z,2.00
2018-09-17T17:17:49.498Z,2.07
2018-09-17T17:20:18.864Z,2.63
2018-09-17T17:22:51.704Z,1.90
2018-09-17T17:25:21.355Z,1.57
2018-09-17T17:27:57.848Z,1.27
2018-09-17T17:30:27.176Z,2.37
2018-09-17T17:32:58.253Z,1.30
2018-09-17T17:35:27.719Z,1.63
2018-09-17T17:38:04.886Z,1.03
2018-09-17T17:40:34.574Z,1.60
2018-09-17T17:43:04.595Z,1.30
2018-09-17T17:45:34.012Z,1.30
2018-09-17T17:48:06.464Z,1.30
2018-09-17T17:50:35.830Z,1.33
2018-09-17T17:53:12.420Z,1.20
2018-09-17T17:55:42.090Z,1.40
2018-09-17T17:58:14.922Z,1.63
2018-09-17T18:00:44.455Z,1.83
2018-09-17T18:03:15.246Z,1.47
2018-09-17T18:05:45.781Z,2.07
2018-09-17T18:08:24.781Z,1.80
2018-09-17T18:10:54.580Z,1.97
2018-09-17T18:13:24.348Z,2.43
2018-09-17T18:15:54.645Z,2.37
2018-09-17T18:18:24.207Z,2.30
2018-09-17T18:20:53.876Z,2.03
2018-09-17T18:23:28.763Z,2.47
2018-09-17T18:25:58.338Z,1.90
2018-09-17T18:28:29.141Z,3.40
2018-09-17T18:30:58.467Z,4.30
2018-09-17T18:33:31.162Z,5.03
2018-09-17T18:36:00.518Z,4.80
2018-09-17T18:38:33.627Z,4.03
2018-09-17T18:41:03.551Z,3.20
2018-09-17T18:43:34.815Z,5.20
2018-09-17T18:46:04.526Z,4.63
2018-09-17T18:48:38.186Z,3.87
2018-09-17T18:51:07.735Z,3.63
2018-09-17T18:53:41.118Z,4.00
2018-09-17T18:56:10.831Z,3.53
2018-09-17T18:58:43.775Z,2.60
2018-09-17T19:01:13.127Z,2.97
2018-09-17T19:03:46.125Z,2.70
2018-09-17T19:06:15.555Z,2.37
2018-09-17T19:08:52.911Z,2.43
2018-09-17T19:11:22.349Z,3.03
2018-09-17T19:13:57.322Z,2.30
2018-09-17T19:16:32.117Z,2.10
2018-09-17T19:19:01.723Z,2.13
2018-09-17T19:21:36.167Z,1.77
2018-09-17T19:24:07.033Z,2.50
2018-09-17T19:26:36.375Z,2.17
2018-09-17T19:29:11.349Z,2.00
2018-09-17T19:34:07.267Z,1.57
2018-09-17T19:36:37.533Z,1.90
2018-09-17T19:39:12.726Z,1.57
2018-09-17T19:41:42.380Z,1.77
2018-09-17T19:44:11.833Z,1.90
2018-09-17T19:46:41.243Z,1.50
2018-09-17T19:49:13.709Z,1.33
2018-09-17T19:51:48.193Z,1.80
2018-09-17T19:54:17.967Z,1.53
2018-09-17T19:56:51.041Z,1.70
2018-09-17T19:59:25.755Z,1.97
2018-09-17T20:01:55.202Z,2.03
2018-09-17T20:04:30.166Z,3.17
2018-09-17T20:06:59.583Z,1.60
2018-09-17T20:09:29.312Z,2.13
2018-09-17T20:11:58.694Z,2.30
2018-09-17T20:14:28.065Z,1.93
2018-09-17T20:16:58.024Z,2.03
2018-09-17T20:19:27.483Z,1.80
2018-09-17T20:21:58.129Z,1.57
2018-09-17T20:24:30.895Z,1.70
2018-09-17T20:27:00.425Z,1.50
2018-09-17T20:29:37.928Z,1.60
2018-09-17T20:32:07.280Z,1.30
2018-09-17T20:34:36.905Z,1.27
2018-09-17T20:37:06.783Z,1.13
2018-09-17T20:39:36.654Z,1.30
2018-09-17T20:42:06.066Z,1.10
2018-09-17T20:44:41.515Z,1.10
2018-09-17T20:47:10.931Z,1.60
2018-09-17T20:49:43.711Z,1.00
2018-09-17T20:52:13.411Z,0.90
2018-09-17T20:54:46.291Z,1.03
2018-09-17T20:57:15.654Z,1.30
2018-09-17T20:59:52.625Z,1.20
2018-09-17T21:02:21.979Z,1.07
2018-09-17T21:04:52.002Z,1.10
2018-09-17T21:07:21.751Z,1.47
2018-09-17T21:09:54.475Z,1.20
2018-09-17T21:12:24.092Z,1.20
2018-09-17T21:14:57.619Z,1.10
2018-09-17T21:17:27.022Z,0.90
2018-09-17T21:20:01.024Z,0.80
2018-09-17T21:22:30.714Z,1.13
2018-09-17T21:25:03.794Z,1.10
2018-09-17T21:27:33.626Z,1.10
2018-09-17T21:30:07.344Z,1.20
2018-09-17T21:32:37.090Z,0.97
2018-09-17T21:35:09.767Z,1.30
2018-09-17T21:37:39.074Z,1.37
2018-09-17T21:40:16.920Z,1.17
2018-09-17T21:42:46.624Z,0.80
2018-09-17T21:45:15.979Z,1.27
2018-09-17T21:47:45.257Z,1.37
2018-09-17T21:50:22.103Z,1.40
2018-09-17T21:52:51.409Z,1.53
2018-09-17T21:55:20.675Z,1.37
2018-09-17T21:57:50.271Z,1.03
2018-09-17T22:00:23.483Z,1.10
2018-09-17T22:02:52.891Z,1.13
2018-09-17T22:05:25.838Z,1.20
2018-09-17T22:07:56.092Z,1.00
2018-09-17T22:10:27.353Z,1.13
2018-09-17T22:12:56.661Z,1.20
2018-09-17T22:15:29.662Z,1.20
2018-09-17T22:17:59.100Z,1.20
2018-09-17T22:20:32.311Z,1.20
2018-09-17T22:23:01.861Z,1.40
2018-09-17T22:25:34.724Z,1.40
2018-09-17T22:28:04.219Z,1.30
2018-09-17T22:30:37.118Z,1.10
2018-09-17T22:33:06.635Z,0.87
2018-09-17T22:35:43.142Z,1.00
2018-09-17T22:38:12.834Z,1.07
2018-09-17T22:40:43.350Z,1.33
2018-09-17T22:43:12.640Z,1.13
2018-09-17T22:45:45.007Z,0.90
2018-09-17T22:48:14.208Z,0.80
2018-09-17T22:50:51.711Z,0.90
2018-09-17T22:53:21.002Z,0.83
2018-09-17T22:55:52.041Z,0.90
2018-09-17T22:58:21.587Z,0.80
2018-09-17T23:00:54.583Z,0.87
2018-09-17T23:03:23.835Z,0.90
2018-09-17T23:05:57.189Z,1.00
2018-09-17T23:08:26.430Z,1.40
2018-09-17T23:10:59.317Z,1.20
2018-09-17T23:13:28.965Z,1.17
2018-09-17T23:16:05.715Z,1.00
2018-09-17T23:18:35.557Z,1.00
2018-09-17T23:21:05.279Z,0.93
2018-09-17T23:23:34.526Z,1.00
2018-09-17T23:26:11.406Z,0.93
2018-09-17T23:28:41.012Z,1.00
2018-09-17T23:31:12.219Z,1.17
2018-09-17T23:33:41.785Z,0.93
2018-09-17T23:36:14.924Z,1.03
2018-09-17T23:38:44.126Z,1.40
2018-09-17T23:41:16.924Z,1.10
2018-09-17T23:43:46.538Z,1.20
2018-09-17T23:46:19.289Z,1.23
2018-09-17T23:48:48.581Z,1.23
2018-09-17T23:51:26.014Z,1.10
2018-09-17T23:53:55.218Z,0.90
2018-09-17T23:56:25.676Z,1.10
2018-09-17T23:58:55.268Z,0.90
